Time;durP1;ratioP1;P1;durP2;ratioP2;P2;SDS_P1;SDS_P2;PMS_P1;PMS_P2;Temp;Humidity;BMP_temperature;BMP_pressure;BME280_temperature;BME280_humidity;BME280_pressure;Samples;Min_cycle;Max_cycle;Signal;HPM_P1;HPM_P2
2022/12/30 00:01:19;;;;;;;0.37;0.37;;;8.50;99.90;;;;;;4439626;32;20066;-64
2022/12/30 00:03:45;;;;;;;0.40;0.40;;;8.40;99.90;;;;;;4437478;32;20115;-63
2022/12/30 00:06:16;;;;;;;0.50;0.50;;;8.40;99.90;;;;;;4436784;32;20081;-63
2022/12/30 00:08:47;;;;;;;0.50;0.50;;;8.40;99.90;;;;;;4438199;32;20061;-62
2022/12/30 00:11:30;;;;;;;0.40;0.40;;;8.40;99.90;;;;;;4430044;32;20089;-64
2022/12/30 00:33:14;;;;;;;1.75;0.40;;;8.60;99.90;;;;;;4426224;32;20117;-62
2022/12/30 00:34:03;;;;;;;;;;;8.60;99.90;;;;;;4426771;32;20022;-64
2022/12/30 00:36:29;;;;;;;0.30;0.30;;;8.50;99.90;;;;;;4441146;32;20969;-64
2022/12/30 00:38:55;;;;;;;0.22;0.22;;;8.40;99.90;;;;;;4441379;32;20065;-64
2022/12/30 00:43:21;;;;;;;0.98;0.85;;;8.40;99.90;;;;;;4433686;32;20065;-64
2022/12/30 00:44:06;;;;;;;0.55;0.55;;;8.40;99.90;;;;;;4417807;32;20207;-64
2022/12/30 00:46:33;;;;;;;0.30;0.30;;;8.40;99.90;;;;;;4440755;32;20121;-63
2022/12/30 00:56:31;;;;;;;0.25;0.25;;;8.30;99.90;;;;;;4431654;32;20090;-64
2022/12/30 00:57:15;;;;;;;0.30;0.30;;;8.40;99.90;;;;;;4431612;32;20556;-62
2022/12/30 00:59:41;;;;;;;0.30;0.30;;;8.40;99.90;;;;;;4441466;32;20113;-64
2022/12/30 01:02:06;;;;;;;0.37;0.37;;;8.50;99.90;;;;;;4442244;32;20085;-62
2022/12/30 01:04:32;;;;;;;0.25;0.25;;;8.50;99.90;;;;;;4439933;32;20077;-64
2022/12/30 01:06:57;;;;;;;0.40;0.40;;;8.50;99.90;;;;;;4439669;32;20082;-63
2022/12/30 01:09:23;;;;;;;0.43;0.43;;;8.50;99.90;;;;;;4439747;32;20085;-64
2022/12/30 01:12:07;;;;;;;0.30;0.30;;;8.50;99.90;;;;;;4428445;32;20060;-65
2022/12/30 01:14:37;;;;;;;0.30;0.30;;;8.50;99.90;;;;;;4434511;32;20078;-64
2022/12/30 01:17:04;;;;;;;0.30;0.30;;;8.50;99.90;;;;;;4441501;32;20081;-63
2022/12/30 01:19:29;;;;;;;0.52;0.50;;;8.60;99.90;;;;;;4442831;32;20077;-64
2022/12/30 01:21:55;;;;;;;0.40;0.40;;;8.50;99.90;;;;;;4442933;32;20098;-62
2022/12/30 01:24:20;;;;;;;1.65;0.65;;;8.50;99.90;;;;;;4442521;32;21125;-63
2022/12/30 01:26:47;;;;;;;0.30;0.30;;;8.50;99.90;;;;;;4443033;32;20158;-63
2022/12/30 01:29:21;;;;;;;0.37;0.37;;;8.60;99.90;;;;;;4441305;32;20057;-62
2022/12/30 01:31:46;;;;;;;1.90;0.73;;;8.60;99.90;;;;;;4427123;32;20136;-63
2022/12/30 01:34:12;;;;;;;1.12;0.93;;;8.50;99.90;;;;;;4441843;32;20169;-64
2022/12/30 01:36:37;;;;;;;0.65;0.50;;;8.50;99.90;;;;;;4441032;32;20046;-64
2022/12/30 01:39:03;;;;;;;0.98;0.95;;;8.50;99.90;;;;;;4441121;32;20102;-63
2022/12/30 01:41:28;;;;;;;1.05;0.70;;;8.50;99.90;;;;;;4429527;32;20077;-65
2022/12/30 01:43:54;;;;;;;0.30;0.30;;;8.40;99.90;;;;;;4427787;32;20081;-64
2022/12/30 01:46:25;;;;;;;0.55;0.55;;;8.40;99.90;;;;;;4438312;32;20077;-64
2022/12/30 01:48:55;;;;;;;0.40;0.40;;;8.40;99.90;;;;;;4439220;32;20166;-63
2022/12/30 01:51:27;;;;;;;0.62;0.62;;;8.40;99.90;;;;;;4426042;32;20149;-64
2022/12/30 01:53:54;;;;;;;0.40;0.40;;;8.40;99.90;;;;;;4442406;32;20089;-64
2022/12/30 01:56:28;;;;;;;0.30;0.30;;;8.30;99.90;;;;;;4440056;32;20097;-64
2022/12/30 01:58:59;;;;;;;0.43;0.40;;;8.30;99.90;;;;;;4439835;32;20077;-65
2022/12/30 02:01:25;;;;;;;0.30;0.30;;;8.30;99.90;;;;;;4439848;32;20100;-63
2022/12/30 02:04:02;;;;;;;0.40;0.40;;;8.30;99.90;;;;;;4439854;32;20072;-64
2022/12/30 02:06:41;;;;;;;0.40;0.40;;;8.40;99.90;;;;;;4438578;32;20057;-63
2022/12/30 02:09:06;;;;;;;1.37;1.27;;;8.40;99.90;;;;;;4440723;32;20115;-65
2022/12/30 02:11:33;;;;;;;2.25;0.75;;;8.40;99.90;;;;;;4427728;32;20093;-64
2022/12/30 02:13:59;;;;;;;0.40;0.40;;;8.40;99.90;;;;;;4428077;32;20048;-65
2022/12/30 02:16:36;;;;;;;0.30;0.30;;;8.30;99.90;;;;;;4438304;32;20081;-65
2022/12/30 02:19:30;;;;;;;0.57;0.57;;;8.40;99.90;;;;;;4440022;32;20111;-65
2022/12/30 02:22:15;;;;;;;0.30;0.30;;;8.30;99.90;;;;;;4440987;32;20073;-64
2022/12/30 02:25:19;;;;;;;12.25;1.17;;;8.30;99.90;;;;;;4439728;32;20194;-64
2022/12/30 02:28:25;;;;;;;0.40;0.40;;;8.30;99.90;;;;;;4430661;32;20110;-64
2022/12/30 02:31:20;;;;;;;0.60;0.60;;;8.30;99.90;;;;;;4422123;32;20105;-65
2022/12/30 02:33:55;;;;;;;0.37;0.37;;;8.40;99.90;;;;;;4429206;32;20088;-64
2022/12/30 02:36:30;;;;;;;0.30;0.30;;;8.40;99.90;;;;;;4440203;32;20232;-64
2022/12/30 02:39:05;;;;;;;4.18;1.40;;;8.40;99.90;;;;;;4438678;32;20087;-64
2022/12/30 02:44:37;;;;;;;0.37;0.37;;;8.40;99.90;;;;;;4406217;32;20112;-65
2022/12/30 02:47:13;;;;;;;0.30;0.30;;;8.40;99.90;;;;;;4426867;32;20081;-65
2022/12/30 02:49:42;;;;;;;0.30;0.30;;;8.40;99.90;;;;;;4440114;32;20167;-65
2022/12/30 02:52:15;;;;;;;0.40;0.40;;;8.40;99.90;;;;;;4440225;32;20081;-63
2022/12/30 02:54:43;;;;;;;0.40;0.40;;;8.30;99.90;;;;;;4438114;32;20448;-64
2022/12/30 02:57:28;;;;;;;0.30;0.30;;;8.30;99.90;;;;;;4438312;32;20101;-62
2022/12/30 03:03:57;;;;;;;;;;;8.20;99.90;;;;;;4427730;32;20123;-62
2022/12/30 03:05:57;;;;;;;0.40;0.40;;;8.20;99.90;;;;;;4427111;32;19976;-64
2022/12/30 03:08:34;;;;;;;0.33;0.33;;;8.10;99.90;;;;;;4421839;32;20089;-64
2022/12/30 03:11:22;;;;;;;0.30;0.30;;;8.00;99.90;;;;;;4429903;32;20096;-65
2022/12/30 03:14:01;;;;;;;12.40;0.40;;;8.00;99.90;;;;;;4428392;32;20093;-65
2022/12/30 03:16:34;;;;;;;0.50;0.45;;;8.00;99.90;;;;;;4438553;32;20128;-63
2022/12/30 03:19:04;;;;;;;0.32;0.32;;;7.90;99.90;;;;;;4440897;32;20123;-63
2022/12/30 03:21:33;;;;;;;0.47;0.47;;;7.90;99.90;;;;;;4440290;32;20082;-65
2022/12/30 03:27:09;;;;;;;0.43;0.43;;;7.80;99.90;;;;;;4428221;32;20664;-63
2022/12/30 03:29:39;;;;;;;0.30;0.30;;;7.70;99.90;;;;;;4438836;32;20162;-63
2022/12/30 03:32:08;;;;;;;0.30;0.30;;;7.80;99.90;;;;;;4419816;32;20104;-64
2022/12/30 03:34:34;;;;;;;0.50;0.50;;;7.80;99.90;;;;;;4437998;32;20057;-64
2022/12/30 03:37:09;;;;;;;0.30;0.30;;;7.80;99.90;;;;;;4439917;32;20073;-63
2022/12/30 03:39:39;;;;;;;0.35;0.35;;;7.80;99.90;;;;;;4439769;32;20095;-63
2022/12/30 03:42:06;;;;;;;0.40;0.40;;;7.70;99.90;;;;;;4428823;32;20087;-64
2022/12/30 03:44:33;;;;;;;0.28;0.28;;;7.70;99.90;;;;;;4430512;32;20070;-64
2022/12/30 03:46:58;;;;;;;0.50;0.50;;;7.70;99.90;;;;;;4441556;32;20077;-64
2022/12/30 03:49:24;;;;;;;0.40;0.40;;;7.80;99.90;;;;;;4439513;32;20093;-64
2022/12/30 03:51:50;;;;;;;0.40;0.40;;;7.80;99.90;;;;;;4440135;32;20053;-64
2022/12/30 03:54:15;;;;;;;0.30;0.30;;;7.70;99.90;;;;;;4439423;32;20120;-65
2022/12/30 03:56:40;;;;;;;0.40;0.40;;;7.70;99.90;;;;;;4440810;32;20074;-64
2022/12/30 03:59:06;;;;;;;0.30;0.30;;;7.70;99.90;;;;;;4439271;32;20154;-63
2022/12/30 04:01:32;;;;;;;1.08;0.75;;;7.70;99.90;;;;;;4440033;32;20154;-64
2022/12/30 04:03:57;;;;;;;0.20;0.20;;;7.70;99.90;;;;;;4442550;32;20089;-64
2022/12/30 04:06:23;;;;;;;0.30;0.30;;;7.60;99.90;;;;;;4444601;32;20105;-63
2022/12/30 04:08:49;;;;;;;0.40;0.40;;;7.60;99.90;;;;;;4430413;32;20196;-63
2022/12/30 04:11:14;;;;;;;0.35;0.35;;;7.50;99.90;;;;;;4419227;32;20071;-65
2022/12/30 04:13:40;;;;;;;0.40;0.40;;;7.50;99.90;;;;;;4431189;32;20996;-64
2022/12/30 04:16:06;;;;;;;0.40;0.40;;;7.50;99.90;;;;;;4442668;32;20120;-64
2022/12/30 04:18:32;;;;;;;0.60;0.60;;;7.50;99.90;;;;;;4445061;32;20070;-64
2022/12/30 04:20:57;;;;;;;0.30;0.30;;;7.40;99.90;;;;;;4443967;32;20155;-63
2022/12/30 04:23:23;;;;;;;0.20;0.20;;;7.40;99.90;;;;;;4444249;32;20097;-64
2022/12/30 04:25:48;;;;;;;0.75;0.75;;;7.30;99.90;;;;;;4443053;32;20089;-63
2022/12/30 04:28:14;;;;;;;0.30;0.30;;;7.30;99.90;;;;;;4443052;32;20147;-64
2022/12/30 04:30:39;;;;;;;6.78;0.80;;;7.20;99.90;;;;;;4431375;32;20066;-62
2022/12/30 04:33:05;;;;;;;0.30;0.30;;;7.20;99.90;;;;;;4444932;32;20084;-64
2022/12/30 04:35:30;;;;;;;0.45;0.45;;;7.10;99.90;;;;;;4446354;32;20090;-64
2022/12/30 04:37:56;;;;;;;1.25;0.65;;;7.10;99.90;;;;;;4442740;32;20081;-62
2022/12/30 04:40:22;;;;;;;1.08;0.57;;;7.10;99.90;;;;;;4437742;32;20081;-64
2022/12/30 04:42:48;;;;;;;0.43;0.43;;;7.10;99.90;;;;;;4430383;32;20158;-64
2022/12/30 04:45:13;;;;;;;0.30;0.30;;;7.00;99.90;;;;;;4436290;32;20080;-64
2022/12/30 04:47:39;;;;;;;3.35;1.08;;;6.90;99.90;;;;;;4442282;32;20102;-63
2022/12/30 04:50:07;;;;;;;5.95;1.15;;;7.00;99.90;;;;;;4443769;32;20054;-64
2022/12/30 04:52:33;;;;;;;3.00;0.98;;;6.90;99.90;;;;;;4430846;32;20081;-63
2022/12/30 04:54:58;;;;;;;0.32;0.32;;;6.90;99.90;;;;;;4443750;32;20448;-62
2022/12/30 04:57:24;;;;;;;1.10;1.00;;;6.80;99.90;;;;;;4443204;32;20081;-63
2022/12/30 04:59:49;;;;;;;3.33;0.82;;;6.80;99.90;;;;;;4442242;32;20074;-63
2022/12/30 05:02:14;;;;;;;1.85;0.98;;;6.70;99.90;;;;;;4445915;32;20061;-64
2022/12/30 05:04:40;;;;;;;0.30;0.30;;;6.70;99.90;;;;;;4444404;32;20069;-63
2022/12/30 05:07:05;;;;;;;0.50;0.50;;;6.70;99.90;;;;;;4444757;32;20140;-64
2022/12/30 05:09:31;;;;;;;0.40;0.40;;;6.70;99.90;;;;;;4441516;32;20162;-64
2022/12/30 05:11:56;;;;;;;0.30;0.30;;;6.70;99.90;;;;;;4433447;32;20066;-64
2022/12/30 05:14:22;;;;;;;0.30;0.30;;;6.60;99.90;;;;;;4432283;32;20082;-64
2022/12/30 05:16:47;;;;;;;0.32;0.32;;;6.60;99.90;;;;;;4442967;32;20140;-64
2022/12/30 05:19:13;;;;;;;1.35;0.73;;;6.60;99.90;;;;;;4443033;32;20147;-64
2022/12/30 05:21:38;;;;;;;0.32;0.32;;;6.60;99.90;;;;;;4440586;32;20129;-61
2022/12/30 05:26:19;;;;;;;0.40;0.40;;;6.50;99.90;;;;;;4442861;32;20065;-64
2022/12/30 05:26:50;;;;;;;0.88;0.88;;;6.50;99.90;;;;;;4430306;32;20537;-64
2022/12/30 05:29:15;;;;;;;0.30;0.30;;;6.50;99.90;;;;;;4441506;32;20069;-64
2022/12/30 05:31:42;;;;;;;0.40;0.40;;;6.50;99.90;;;;;;4442751;32;20085;-63
2022/12/30 05:34:08;;;;;;;0.37;0.37;;;6.50;99.90;;;;;;4440267;32;20211;-64
2022/12/30 05:36:33;;;;;;;0.50;0.50;;;6.40;99.90;;;;;;4441989;32;20077;-62
2022/12/30 05:38:59;;;;;;;2.72;1.02;;;6.40;99.90;;;;;;4441922;32;20106;-62
2022/12/30 05:41:24;;;;;;;1.20;1.10;;;6.40;99.90;;;;;;4430174;32;20221;-64
2022/12/30 05:43:50;;;;;;;0.30;0.30;;;6.40;99.90;;;;;;4432807;32;20069;-64
2022/12/30 05:46:16;;;;;;;0.40;0.40;;;6.40;99.90;;;;;;4440560;32;20082;-63
2022/12/30 05:48:41;;;;;;;0.30;0.30;;;6.40;99.90;;;;;;4425871;32;20117;-64
2022/12/30 05:51:07;;;;;;;0.90;0.52;;;6.30;99.90;;;;;;4428062;32;20101;-64
2022/12/30 05:53:32;;;;;;;0.62;0.62;;;6.30;99.90;;;;;;4441813;32;20110;-64
2022/12/30 05:55:59;;;;;;;0.55;0.55;;;6.20;99.90;;;;;;4441969;32;20070;-61
2022/12/30 05:58:25;;;;;;;0.40;0.40;;;6.20;99.90;;;;;;4439694;32;20292;-63
2022/12/30 06:00:51;;;;;;;2.05;1.12;;;6.20;99.90;;;;;;4438884;32;20081;-64
2022/12/30 06:03:16;;;;;;;0.20;0.20;;;6.20;99.90;;;;;;4436078;32;20131;-64
2022/12/30 06:05:42;;;;;;;0.40;0.40;;;6.20;99.90;;;;;;4436200;32;20121;-64
2022/12/30 06:08:08;;;;;;;0.30;0.30;;;6.10;99.90;;;;;;4435945;32;20085;-64
2022/12/30 06:10:35;;;;;;;1.33;0.95;;;6.10;99.90;;;;;;4429533;32;20102;-64
2022/12/30 06:13:00;;;;;;;0.37;0.37;;;6.10;99.90;;;;;;4419000;32;20089;-65
2022/12/30 06:15:26;;;;;;;0.30;0.30;;;6.00;99.90;;;;;;4427392;32;20132;-64
2022/12/30 06:17:51;;;;;;;0.70;0.70;;;6.00;99.90;;;;;;4434440;32;20089;-64
2022/12/30 06:20:17;;;;;;;0.30;0.30;;;6.00;99.90;;;;;;4436344;32;20093;-63
2022/12/30 06:22:42;;;;;;;0.90;0.88;;;6.10;99.90;;;;;;4435277;32;20079;-64
2022/12/30 06:25:08;;;;;;;0.40;0.40;;;6.00;99.90;;;;;;4436469;32;20093;-65
2022/12/30 06:27:33;;;;;;;0.35;0.35;;;6.00;99.90;;;;;;4438812;32;20093;-64
2022/12/30 06:29:59;;;;;;;0.60;0.60;;;6.00;99.90;;;;;;4440867;32;20080;-63
2022/12/30 06:32:24;;;;;;;0.40;0.40;;;6.00;99.90;;;;;;4433252;32;20085;-64
2022/12/30 06:34:50;;;;;;;0.40;0.40;;;6.00;99.90;;;;;;4435669;32;20885;-64
2022/12/30 06:37:16;;;;;;;0.40;0.40;;;5.80;99.90;;;;;;4440249;32;20046;-63
2022/12/30 06:39:42;;;;;;;0.30;0.30;;;5.80;99.90;;;;;;4439835;32;20053;-64
2022/12/30 06:42:07;;;;;;;0.90;0.50;;;5.90;99.90;;;;;;4427495;32;20101;-64
2022/12/30 06:44:33;;;;;;;0.30;0.30;;;5.90;99.90;;;;;;4424620;32;20074;-65
2022/12/30 06:46:58;;;;;;;0.55;0.47;;;5.90;99.90;;;;;;4435906;32;20073;-64
2022/12/30 06:49:24;;;;;;;0.65;0.65;;;5.80;99.90;;;;;;4438367;32;20078;-64
2022/12/30 06:51:49;;;;;;;3.40;1.60;;;5.80;99.90;;;;;;4441102;32;20189;-64
2022/12/30 06:54:15;;;;;;;0.30;0.30;;;5.70;99.90;;;;;;4440645;32;20065;-64
2022/12/30 06:56:40;;;;;;;0.82;0.82;;;5.80;99.90;;;;;;4442177;32;20062;-63
2022/12/30 06:59:06;;;;;;;0.60;0.60;;;5.70;99.90;;;;;;4441677;32;20120;-64
2022/12/30 07:01:31;;;;;;;14.70;1.10;;;5.70;99.90;;;;;;4438536;32;20140;-64
2022/12/30 07:03:57;;;;;;;0.30;0.30;;;5.70;99.90;;;;;;4435324;32;20111;-65
2022/12/30 07:06:22;;;;;;;2.92;0.95;;;5.60;99.90;;;;;;4436026;32;20086;-61
2022/12/30 07:08:48;;;;;;;0.20;0.20;;;5.70;99.90;;;;;;4442397;32;20122;-64
2022/12/30 07:11:13;;;;;;;4.57;0.85;;;5.70;99.90;;;;;;4431333;32;20070;-64
2022/12/30 07:13:39;;;;;;;0.30;0.30;;;5.60;99.90;;;;;;4424202;32;20268;-64
2022/12/30 07:16:04;;;;;;;0.40;0.40;;;5.70;99.90;;;;;;4431169;32;20169;-63
2022/12/30 07:18:30;;;;;;;0.40;0.40;;;5.70;99.90;;;;;;4439600;32;20102;-64
2022/12/30 07:20:55;;;;;;;0.40;0.40;;;5.70;99.90;;;;;;4439746;32;20089;-64
2022/12/30 07:23:22;;;;;;;4.93;1.20;;;5.60;99.90;;;;;;4425319;32;20844;-62
2022/12/30 07:25:47;;;;;;;0.50;0.50;;;5.60;99.90;;;;;;4440027;32;20077;-64
2022/12/30 07:28:13;;;;;;;0.40;0.40;;;5.60;99.90;;;;;;4438545;32;20110;-64
2022/12/30 07:30:38;;;;;;;0.37;0.37;;;5.60;99.90;;;;;;4437368;32;20085;-63
2022/12/30 07:33:04;;;;;;;0.40;0.40;;;5.50;99.90;;;;;;4427657;32;112684;-64
2022/12/30 07:35:29;;;;;;;2.90;1.55;;;5.50;99.90;;;;;;4432536;32;20109;-64
2022/12/30 07:37:54;;;;;;;0.40;0.40;;;5.50;99.90;;;;;;4438740;32;20081;-64
2022/12/30 07:40:20;;;;;;;0.55;0.55;;;5.50;99.90;;;;;;4434078;32;20089;-64
2022/12/30 07:42:46;;;;;;;0.35;0.35;;;5.40;99.90;;;;;;4423799;32;20108;-64
2022/12/30 07:45:11;;;;;;;0.40;0.40;;;5.50;99.90;;;;;;4428242;32;20090;-65
2022/12/30 07:47:37;;;;;;;0.82;0.70;;;5.50;99.90;;;;;;4439585;32;20049;-64
2022/12/30 07:50:05;;;;;;;0.43;0.43;;;5.50;99.90;;;;;;4440092;32;20215;-63
2022/12/30 07:52:30;;;;;;;0.40;0.40;;;5.50;99.90;;;;;;4441171;32;20580;-65
2022/12/30 07:54:56;;;;;;;0.30;0.30;;;5.50;99.90;;;;;;4440449;32;20097;-64
2022/12/30 07:57:21;;;;;;;1.35;0.75;;;5.60;99.90;;;;;;4439421;32;20062;-65
2022/12/30 07:59:47;;;;;;;0.70;0.70;;;5.60;99.90;;;;;;4442667;32;20093;-64
2022/12/30 08:02:12;;;;;;;0.30;0.30;;;5.60;99.90;;;;;;4419353;32;20073;-65
2022/12/30 08:04:38;;;;;;;0.68;0.68;;;5.60;99.90;;;;;;4433056;32;20134;-65
2022/12/30 08:07:03;;;;;;;1.85;0.55;;;5.50;99.90;;;;;;4438138;32;20076;-63
2022/12/30 08:09:29;;;;;;;0.30;0.30;;;5.50;99.90;;;;;;4440880;32;20164;-64
2022/12/30 08:11:55;;;;;;;0.60;0.60;;;5.50;99.90;;;;;;4427390;32;20073;-65
2022/12/30 08:14:20;;;;;;;0.30;0.30;;;5.60;99.90;;;;;;4422745;32;20061;-64
2022/12/30 08:16:45;;;;;;;0.40;0.40;;;5.60;99.90;;;;;;4433716;32;20062;-65
2022/12/30 08:19:11;;;;;;;0.50;0.50;;;5.70;99.90;;;;;;4439268;32;20088;-62
2022/12/30 08:21:37;;;;;;;1.17;1.02;;;5.70;99.90;;;;;;4440474;32;20085;-64
2022/12/30 08:24:02;;;;;;;0.37;0.37;;;5.60;99.90;;;;;;4439432;32;21033;-65
2022/12/30 08:26:28;;;;;;;0.60;0.60;;;5.70;99.90;;;;;;4438061;32;21220;-64
2022/12/30 08:28:54;;;;;;;0.43;0.40;;;5.70;99.90;;;;;;4440485;32;20057;-63
2022/12/30 08:31:23;;;;;;;0.30;0.30;;;5.70;99.90;;;;;;4435188;32;20074;-64
2022/12/30 08:33:48;;;;;;;0.30;0.30;;;5.80;99.90;;;;;;4431664;32;20329;-64
2022/12/30 08:36:17;;;;;;;5.10;1.15;;;5.80;99.90;;;;;;4436441;32;20241;-64
2022/12/30 08:38:46;;;;;;;0.82;0.82;;;5.90;99.90;;;;;;4439272;32;20084;-64
2022/12/30 08:41:18;;;;;;;0.40;0.40;;;6.00;99.90;;;;;;4416722;32;20069;-64
2022/12/30 08:43:43;;;;;;;0.40;0.40;;;6.00;99.90;;;;;;4420786;32;20168;-65
2022/12/30 08:46:09;;;;;;;0.30;0.30;;;6.10;99.90;;;;;;4430298;32;20073;-65
2022/12/30 08:48:34;;;;;;;0.30;0.30;;;6.10;99.90;;;;;;4424049;32;20078;-64
2022/12/30 08:51:01;;;;;;;0.35;0.35;;;6.10;99.90;;;;;;4440690;32;20094;-64
2022/12/30 08:53:27;;;;;;;0.50;0.50;;;6.30;99.90;;;;;;4429892;32;20263;-65
2022/12/30 08:56:03;;;;;;;0.50;0.50;;;6.50;99.90;;;;;;4441734;32;20078;-64
2022/12/30 08:58:29;;;;;;;0.30;0.30;;;6.60;99.90;;;;;;4442992;32;20108;-64
2022/12/30 09:00:54;;;;;;;0.55;0.55;;;6.70;99.90;;;;;;4441285;32;20167;-64
2022/12/30 09:03:20;;;;;;;0.52;0.52;;;6.80;99.90;;;;;;4434325;32;20109;-64
2022/12/30 09:05:50;;;;;;;0.88;0.65;;;6.80;99.90;;;;;;4437073;32;20155;-63
2022/12/30 09:08:16;;;;;;;0.73;0.73;;;6.90;99.90;;;;;;4442473;32;20077;-64
2022/12/30 09:10:42;;;;;;;2.37;1.10;;;6.90;99.90;;;;;;4434710;32;20138;-64
2022/12/30 09:13:07;;;;;;;1.45;0.93;;;7.00;99.90;;;;;;4424240;32;20074;-65
2022/12/30 09:15:33;;;;;;;0.30;0.30;;;7.10;99.90;;;;;;4431484;32;20120;-65
2022/12/30 09:17:58;;;;;;;0.40;0.40;;;7.10;99.90;;;;;;4439974;32;20109;-64
2022/12/30 09:20:24;;;;;;;0.43;0.43;;;7.20;99.90;;;;;;4441231;32;20073;-64
2022/12/30 09:22:49;;;;;;;0.52;0.50;;;7.20;99.90;;;;;;4442144;32;20127;-63
2022/12/30 09:25:14;;;;;;;0.55;0.55;;;7.30;99.90;;;;;;4443638;32;20104;-64
2022/12/30 09:27:40;;;;;;;0.95;0.95;;;7.40;99.90;;;;;;4442865;32;20077;-65
2022/12/30 09:30:06;;;;;;;1.05;0.95;;;7.40;99.90;;;;;;4440559;32;20077;-65
2022/12/30 09:32:31;;;;;;;1.30;1.05;;;7.50;99.90;;;;;;4438240;32;20062;-65
2022/12/30 09:34:57;;;;;;;0.50;0.50;;;7.50;99.90;;;;;;4434795;32;20170;-65
2022/12/30 09:37:23;;;;;;;0.75;0.75;;;7.60;99.90;;;;;;4441177;32;20117;-64
2022/12/30 09:39:48;;;;;;;0.30;0.30;;;7.70;99.90;;;;;;4439380;32;20077;-65
2022/12/30 09:43:17;;;;;;;0.30;0.30;;;7.70;99.90;;;;;;4427418;32;20089;-64
2022/12/30 09:45:18;;;;;;;1.45;1.20;;;7.80;99.90;;;;;;4414865;32;20066;-65
2022/12/30 09:47:49;;;;;;;0.50;0.50;;;7.90;99.90;;;;;;4439359;32;20125;-64
2022/12/30 09:50:40;;;;;;;2.30;1.27;;;8.00;99.90;;;;;;4439974;32;20148;-65
2022/12/30 09:53:21;;;;;;;0.88;0.70;;;8.00;99.90;;;;;;4432286;32;20104;-64
2022/12/30 09:55:51;;;;;;;0.60;0.60;;;8.10;99.90;;;;;;4440074;32;20102;-65
2022/12/30 09:58:24;;;;;;;0.50;0.50;;;8.10;99.90;;;;;;4441607;32;20077;-62
2022/12/30 10:00:52;;;;;;;0.25;0.25;;;8.20;99.90;;;;;;4438119;32;20073;-64
2022/12/30 10:03:20;;;;;;;0.30;0.30;;;8.30;99.90;;;;;;4432751;32;20081;-65
2022/12/30 10:06:11;;;;;;;0.20;0.20;;;8.40;99.90;;;;;;4438595;32;20062;-63
2022/12/30 10:09:05;;;;;;;0.45;0.45;;;8.40;99.90;;;;;;4431513;32;20169;-65
2022/12/30 10:12:02;;;;;;;1.20;0.80;;;8.60;99.90;;;;;;4416755;32;20073;-64
2022/12/30 10:15:08;;;;;;;2.30;0.82;;;8.70;99.90;;;;;;4409667;32;20094;-64
2022/12/30 10:17:58;;;;;;;0.85;0.70;;;8.80;99.90;;;;;;4421883;32;20097;-63
2022/12/30 10:20:43;;;;;;;0.30;0.30;;;8.80;99.90;;;;;;4427954;32;20097;-64
2022/12/30 10:23:21;;;;;;;0.32;0.32;;;8.80;99.90;;;;;;4441343;32;20116;-61
2022/12/30 10:25:59;;;;;;;1.45;0.68;;;8.80;99.90;;;;;;4439265;32;20143;-64
2022/12/30 10:28:32;;;;;;;0.62;0.62;;;8.80;99.90;;;;;;4442605;32;20152;-64
2022/12/30 10:30:57;;;;;;;0.50;0.50;;;8.80;99.90;;;;;;4438352;32;20093;-64
2022/12/30 10:33:23;;;;;;;0.55;0.55;;;8.90;99.90;;;;;;4433505;32;20081;-65
2022/12/30 10:35:57;;;;;;;0.50;0.50;;;9.00;99.90;;;;;;4434047;32;20061;-63
2022/12/30 10:38:28;;;;;;;1.65;0.52;;;9.10;99.90;;;;;;4438914;32;20074;-65
2022/12/30 10:41:33;;;;;;;0.52;0.52;;;9.10;99.90;;;;;;4432235;32;20088;-65
2022/12/30 10:44:26;;;;;;;1.10;0.70;;;9.20;99.90;;;;;;4405256;32;20136;-65
2022/12/30 10:47:21;;;;;;;2.30;0.62;;;9.10;99.90;;;;;;4422847;32;20089;-64
2022/12/30 10:50:10;;;;;;;5.00;1.75;;;9.10;99.90;;;;;;4429104;32;20069;-64
2022/12/30 10:52:35;;;;;;;0.30;0.30;;;9.30;99.90;;;;;;4439448;32;20084;-64
2022/12/30 10:55:17;;;;;;;0.20;0.20;;;9.40;99.90;;;;;;4426732;32;20097;-64
2022/12/30 10:57:43;;;;;;;0.40;0.40;;;9.40;99.90;;;;;;4441709;32;20093;-65
2022/12/30 11:00:09;;;;;;;0.30;0.30;;;9.40;99.90;;;;;;4426548;32;20092;-64
2022/12/30 11:02:37;;;;;;;0.30;0.30;;;9.30;99.90;;;;;;4432176;32;20049;-64
2022/12/30 11:05:27;;;;;;;7.72;0.95;;;9.40;99.90;;;;;;4433797;32;20081;-64
2022/12/30 11:07:55;;;;;;;0.50;0.40;;;9.50;99.90;;;;;;4429314;32;20097;-63
2022/12/30 11:10:20;;;;;;;0.88;0.82;;;9.60;99.90;;;;;;4437168;32;20108;-64
2022/12/30 11:14:45;;;;;;;0.32;0.32;;;9.70;99.90;;;;;;4423429;32;20141;-64
2022/12/30 11:15:50;;;;;;;0.30;0.30;;;9.70;99.90;;;;;;4416159;32;20089;-64
2022/12/30 11:18:16;;;;;;;0.30;0.30;;;9.80;99.90;;;;;;4440602;32;20081;-63
2022/12/30 11:20:42;;;;;;;0.30;0.30;;;9.90;99.90;;;;;;4440247;32;21275;-65
2022/12/30 11:23:31;;;;;;;9.68;0.68;;;10.00;99.90;;;;;;4444869;32;20086;-65
2022/12/30 11:25:58;;;;;;;0.20;0.20;;;10.00;99.90;;;;;;4428983;32;20065;-64
2022/12/30 11:28:28;;;;;;;0.68;0.68;;;10.10;99.90;;;;;;4438290;32;20074;-65
2022/12/30 11:30:59;;;;;;;1.45;0.52;;;10.00;99.90;;;;;;4436916;32;20387;-64
2022/12/30 11:33:30;;;;;;;0.60;0.60;;;10.10;99.90;;;;;;4432021;32;20053;-64
2022/12/30 11:36:15;;;;;;;0.50;0.50;;;10.10;99.90;;;;;;4432623;32;20069;-64
2022/12/30 11:38:43;;;;;;;0.30;0.30;;;10.10;99.90;;;;;;4424955;32;20097;-65
2022/12/30 11:41:19;;;;;;;0.82;0.40;;;9.90;99.90;;;;;;4415354;32;20086;-63
2022/12/30 11:43:46;;;;;;;0.60;0.60;;;9.80;99.90;;;;;;4423022;32;20424;-65
2022/12/30 11:46:14;;;;;;;1.40;0.98;;;9.90;99.90;;;;;;4432110;32;20089;-65
2022/12/30 11:48:47;;;;;;;0.70;0.50;;;10.00;99.90;;;;;;4439463;32;20167;-63
2022/12/30 11:51:20;;;;;;;0.30;0.30;;;10.10;99.90;;;;;;4435711;32;20129;-65
2022/12/30 11:53:46;;;;;;;0.40;0.40;;;10.20;99.90;;;;;;4438892;32;20116;-64
2022/12/30 11:56:12;;;;;;;0.32;0.32;;;10.10;99.90;;;;;;4423689;32;20078;-63
2022/12/30 11:58:40;;;;;;;0.40;0.40;;;10.10;99.90;;;;;;4435241;32;20216;-64
2022/12/30 12:01:09;;;;;;;1.37;0.55;;;9.90;99.90;;;;;;4433478;32;20093;-64
2022/12/30 12:03:49;;;;;;;0.73;0.73;;;10.00;99.90;;;;;;4415593;32;20132;-65
2022/12/30 12:06:15;;;;;;;0.32;0.32;;;10.30;99.90;;;;;;4431651;32;20069;-64
2022/12/30 12:09:03;;;;;;;0.40;0.40;;;10.40;99.90;;;;;;4437274;32;20742;-63
2022/12/30 12:11:35;;;;;;;0.37;0.37;;;10.60;99.90;;;;;;4414824;32;20096;-65
2022/12/30 12:14:08;;;;;;;1.55;0.73;;;10.70;99.90;;;;;;4399541;32;20148;-65
2022/12/30 12:16:50;;;;;;;2.45;0.68;;;10.60;99.90;;;;;;4431660;32;20089;-63
2022/12/30 12:19:35;;;;;;;12.05;0.68;;;10.60;99.90;;;;;;4441010;32;20090;-63
2022/12/30 12:22:08;;;;;;;0.40;0.40;;;10.50;99.90;;;;;;4437750;32;20089;-65
2022/12/30 12:24:39;;;;;;;0.60;0.60;;;10.50;99.90;;;;;;4437223;32;20133;-62
2022/12/30 12:27:08;;;;;;;;;;;10.50;99.90;;;;;;4427307;32;20088;-62
2022/12/30 12:29:35;;;;;;;0.60;0.60;;;10.40;99.90;;;;;;4441696;32;19948;-65
2022/12/30 12:32:42;;;;;;;0.40;0.40;;;10.40;99.90;;;;;;4433573;32;20097;-64
2022/12/30 12:35:29;;;;;;;0.50;0.50;;;10.20;99.90;;;;;;4421681;32;20198;-65
2022/12/30 12:38:16;;;;;;;0.40;0.40;;;10.10;99.90;;;;;;4430149;32;20070;-63
2022/12/30 12:41:16;;;;;;;0.57;0.57;;;10.30;99.90;;;;;;4424393;32;20077;-63
2022/12/30 12:43:52;;;;;;;0.40;0.40;;;10.30;99.90;;;;;;4411555;32;20106;-64
2022/12/30 12:46:41;;;;;;;0.28;0.28;;;10.40;99.90;;;;;;4432116;32;20142;-63
2022/12/30 12:49:41;;;;;;;0.50;0.50;;;10.40;99.90;;;;;;4442153;32;20113;-64
2022/12/30 12:52:26;;;;;;;0.40;0.40;;;10.60;99.90;;;;;;4431490;32;20112;-62
2022/12/30 12:55:19;;;;;;;0.73;0.50;;;10.70;99.90;;;;;;4441458;32;20096;-63
2022/12/30 12:57:52;;;;;;;0.50;0.50;;;10.70;99.90;;;;;;4424241;32;20097;-62
2022/12/30 13:00:21;;;;;;;7.10;1.85;;;10.80;99.90;;;;;;4440352;32;20065;-64
2022/12/30 13:03:11;;;;;;;1.85;0.70;;;10.90;99.90;;;;;;4432127;32;20894;-65
2022/12/30 13:05:58;;;;;;;0.35;0.35;;;11.00;99.90;;;;;;4420570;32;20096;-64
2022/12/30 13:08:56;;;;;;;0.40;0.40;;;11.00;99.90;;;;;;4426995;32;20069;-64
2022/12/30 13:11:52;;;;;;;1.10;0.95;;;11.00;99.90;;;;;;4429841;32;20077;-64
2022/12/30 13:14:33;;;;;;;0.80;0.70;;;10.60;99.90;;;;;;4409760;32;20093;-64
2022/12/30 13:17:00;;;;;;;;;;;10.50;99.90;;;;;;4434820;32;20081;-62
2022/12/30 13:19:36;;;;;;;0.40;0.40;;;10.30;99.90;;;;;;4441003;32;20221;-64
2022/12/30 13:22:07;;;;;;;0.62;0.45;;;10.20;99.90;;;;;;4438957;32;20065;-64
2022/12/30 13:24:36;;;;;;;;;;;10.10;99.90;;;;;;4442921;32;20057;-64
2022/12/30 13:27:04;;;;;;;0.40;0.40;;;10.10;99.90;;;;;;4439232;32;19989;-64
2022/12/30 13:29:35;;;;;;;0.30;0.30;;;10.00;99.90;;;;;;4425801;32;20089;-61
2022/12/30 13:32:03;;;;;;;0.75;0.75;;;10.00;99.90;;;;;;4432476;32;20065;-64
2022/12/30 13:34:47;;;;;;;1.58;0.70;;;10.00;99.90;;;;;;4432247;32;20096;-63
2022/12/30 13:37:25;;;;;;;0.50;0.50;;;9.80;99.90;;;;;;4422488;32;20086;-63
2022/12/30 13:39:59;;;;;;;1.55;0.85;;;9.90;99.90;;;;;;4434090;32;20154;-64
2022/12/30 13:42:50;;;;;;;0.40;0.40;;;9.90;99.90;;;;;;4421708;32;20116;-64
2022/12/30 13:45:26;;;;;;;0.65;0.65;;;9.90;99.90;;;;;;4426964;32;20112;-64
2022/12/30 13:47:59;;;;;;;1.12;0.65;;;9.80;99.90;;;;;;4436633;32;20062;-64
2022/12/30 13:50:27;;;;;;;0.40;0.40;;;9.80;99.90;;;;;;4439996;32;20120;-62